sensor_id;sensor_type;location;lat;lon;timestamp;pressure;altitude;pressure_sealevel;temperature;humidity
21203;BME280;10759;51.982;9.232;2023-04-27T00:01:58;100720.44;;;5.41;88.22
21203;BME280;10759;51.982;9.232;2023-04-27T00:04:27;100723.09;;;5.41;88.87
21203;BME280;10759;51.982;9.232;2023-04-27T00:06:55;100679.09;;;5.13;88.51
21203;BME280;10759;51.982;9.232;2023-04-27T00:09:23;100724.94;;;5.34;88.41
21203;BME280;10759;51.982;9.232;2023-04-27T00:11:51;100653.59;;;5.00;89.21
21203;BME280;10759;51.982;9.232;2023-04-27T00:14:19;100727.75;;;5.20;90.06
21203;BME280;10759;51.982;9.232;2023-04-27T00:16:47;100723.31;;;5.22;90.67
21203;BME280;10759;51.982;9.232;2023-04-27T00:19:16;100717.09;;;5.23;90.36
21203;BME280;10759;51.982;9.232;2023-04-27T00:21:44;100668.66;;;4.98;90.24
21203;BME280;10759;51.982;9.232;2023-04-27T00:24:12;100724.06;;;5.33;90.20
21203;BME280;10759;51.982;9.232;2023-04-27T00:26:40;100720.63;;;5.25;90.70
21203;BME280;10759;51.982;9.232;2023-04-27T00:29:08;100722.44;;;5.20;90.68
21203;BME280;10759;51.982;9.232;2023-04-27T00:31:37;100723.56;;;4.98;91.38
21203;BME280;10759;51.982;9.232;2023-04-27T00:34:05;100718.25;;;4.98;92.41
21203;BME280;10759;51.982;9.232;2023-04-27T00:36:35;100728.03;;;4.92;92.99
21203;BME280;10759;51.982;9.232;2023-04-27T00:39:03;100719.13;;;5.00;92.68
21203;BME280;10759;51.982;9.232;2023-04-27T00:41:32;100713.06;;;4.84;93.23
21203;BME280;10759;51.982;9.232;2023-04-27T00:44:00;100713.91;;;4.87;93.36
21203;BME280;10759;51.982;9.232;2023-04-27T00:46:28;100691.78;;;4.87;92.75
21203;BME280;10759;51.982;9.232;2023-04-27T00:48:56;100707.63;;;4.96;92.54
21203;BME280;10759;51.982;9.232;2023-04-27T00:51:24;100718.13;;;5.08;92.70
21203;BME280;10759;51.982;9.232;2023-04-27T00:53:56;100733.16;;;5.11;93.20
21203;BME280;10759;51.982;9.232;2023-04-27T00:56:24;100735.81;;;5.09;92.96
21203;BME280;10759;51.982;9.232;2023-04-27T00:58:53;100735.81;;;5.11;92.89
21203;BME280;10759;51.982;9.232;2023-04-27T01:01:22;100730.56;;;5.05;92.64
21203;BME280;10759;51.982;9.232;2023-04-27T01:03:50;100731.38;;;5.13;92.85
21203;BME280;10759;51.982;9.232;2023-04-27T01:06:18;100703.06;;;5.09;92.40
21203;BME280;10759;51.982;9.232;2023-04-27T01:08:46;100727.81;;;5.14;92.51
21203;BME280;10759;51.982;9.232;2023-04-27T01:11:15;100737.38;;;5.29;92.21
21203;BME280;10759;51.982;9.232;2023-04-27T01:13:43;100740.91;;;5.32;91.95
21203;BME280;10759;51.982;9.232;2023-04-27T01:16:11;100728.63;;;5.21;92.22
21203;BME280;10759;51.982;9.232;2023-04-27T01:18:39;100731.31;;;5.16;91.78
21203;BME280;10759;51.982;9.232;2023-04-27T01:21:07;100735.75;;;5.17;92.18
21203;BME280;10759;51.982;9.232;2023-04-27T01:23:36;100745.53;;;5.15;92.82
21203;BME280;10759;51.982;9.232;2023-04-27T01:26:04;100756.94;;;5.25;93.46
21203;BME280;10759;51.982;9.232;2023-04-27T01:28:32;100747.63;;;4.76;93.88
21203;BME280;10759;51.982;9.232;2023-04-27T01:31:00;100688.53;;;4.52;94.38
21203;BME280;10759;51.982;9.232;2023-04-27T01:33:28;100758.09;;;4.98;93.70
21203;BME280;10759;51.982;9.232;2023-04-27T01:35:56;100731.75;;;4.70;93.82
21203;BME280;10759;51.982;9.232;2023-04-27T01:38:26;100766.13;;;4.88;94.27
21203;BME280;10759;51.982;9.232;2023-04-27T01:40:56;100754.72;;;4.74;94.46
21203;BME280;10759;51.982;9.232;2023-04-27T01:43:27;100768.78;;;4.87;94.63
21203;BME280;10759;51.982;9.232;2023-04-27T01:45:55;100757.41;;;4.69;94.45
21203;BME280;10759;51.982;9.232;2023-04-27T01:48:23;100776.78;;;4.84;94.26
21203;BME280;10759;51.982;9.232;2023-04-27T01:50:51;100708.13;;;4.39;94.74
21203;BME280;10759;51.982;9.232;2023-04-27T01:53:19;100748.66;;;4.63;94.56
21203;BME280;10759;51.982;9.232;2023-04-27T01:55:47;100787.50;;;4.70;95.37
21203;BME280;10759;51.982;9.232;2023-04-27T01:58:16;100781.44;;;4.52;96.04
21203;BME280;10759;51.982;9.232;2023-04-27T02:00:44;100772.72;;;4.38;97.26
21203;BME280;10759;51.982;9.232;2023-04-27T02:03:12;100784.03;;;4.63;97.12
21203;BME280;10759;51.982;9.232;2023-04-27T02:05:40;100798.09;;;4.76;96.44
21203;BME280;10759;51.982;9.232;2023-04-27T02:08:08;100795.47;;;4.70;96.08
21203;BME280;10759;51.982;9.232;2023-04-27T02:10:37;100771.75;;;4.48;96.02
21203;BME280;10759;51.982;9.232;2023-04-27T02:13:05;100808.81;;;4.58;96.55
21203;BME280;10759;51.982;9.232;2023-04-27T02:15:34;100803.50;;;4.64;96.13
21203;BME280;10759;51.982;9.232;2023-04-27T02:18:02;100793.81;;;4.55;95.93
21203;BME280;10759;51.982;9.232;2023-04-27T02:20:31;100804.50;;;4.43;96.32
21203;BME280;10759;51.982;9.232;2023-04-27T02:22:59;100807.16;;;4.43;97.47
21203;BME280;10759;51.982;9.232;2023-04-27T02:25:27;100806.28;;;4.42;97.59
21203;BME280;10759;51.982;9.232;2023-04-27T02:27:55;100805.41;;;4.40;97.58
21203;BME280;10759;51.982;9.232;2023-04-27T02:30:24;100811.56;;;4.45;97.76
21203;BME280;10759;51.982;9.232;2023-04-27T02:32:58;100810.72;;;4.43;96.94
21203;BME280;10759;51.982;9.232;2023-04-27T02:35:26;100810.72;;;4.39;97.12
21203;BME280;10759;51.982;9.232;2023-04-27T02:37:53;100805.53;;;4.17;98.20
21203;BME280;10759;51.982;9.232;2023-04-27T02:40:22;100802.03;;;4.09;98.07
21203;BME280;10759;51.982;9.232;2023-04-27T02:42:50;100795.84;;;4.12;98.67
21203;BME280;10759;51.982;9.232;2023-04-27T02:45:18;100802.84;;;4.22;98.88
21203;BME280;10759;51.982;9.232;2023-04-27T02:47:46;100702.34;;;3.66;98.22
21203;BME280;10759;51.982;9.232;2023-04-27T02:50:16;100786.16;;;4.03;98.22
21203;BME280;10759;51.982;9.232;2023-04-27T02:52:43;100808.25;;;4.02;98.74
21203;BME280;10759;51.982;9.232;2023-04-27T02:55:11;100806.44;;;4.08;98.95
21203;BME280;10759;51.982;9.232;2023-04-27T02:57:40;100797.59;;;4.13;98.83
21203;BME280;10759;51.982;9.232;2023-04-27T03:00:08;100799.31;;;4.20;98.31
21203;BME280;10759;51.982;9.232;2023-04-27T03:02:37;100796.69;;;4.17;97.26
21203;BME280;10759;51.982;9.232;2023-04-27T03:05:06;100796.75;;;4.09;96.74
21203;BME280;10759;51.982;9.232;2023-04-27T03:07:35;100750.91;;;3.76;97.34
21203;BME280;10759;51.982;9.232;2023-04-27T03:10:03;100785.28;;;3.96;97.27
21203;BME280;10759;51.982;9.232;2023-04-27T03:12:31;100800.28;;;4.03;97.30
21203;BME280;10759;51.982;9.232;2023-04-27T03:14:59;100801.19;;;3.96;98.08
21203;BME280;10759;51.982;9.232;2023-04-27T03:17:27;100765.94;;;3.76;98.30
21203;BME280;10759;51.982;9.232;2023-04-27T03:19:55;100802.09;;;4.01;98.29
21203;BME280;10759;51.982;9.232;2023-04-27T03:22:23;100816.19;;;4.03;97.97
21203;BME280;10759;51.982;9.232;2023-04-27T03:24:52;100780.06;;;3.84;97.84
21203;BME280;10759;51.982;9.232;2023-04-27T03:27:20;100781.78;;;3.91;98.04
21203;BME280;10759;51.982;9.232;2023-04-27T03:29:50;100808.25;;;4.03;97.22
21203;BME280;10759;51.982;9.232;2023-04-27T03:32:18;100807.44;;;3.89;96.69
21203;BME280;10759;51.982;9.232;2023-04-27T03:34:46;100803.94;;;3.79;97.73
21203;BME280;10759;51.982;9.232;2023-04-27T03:37:14;100796.88;;;3.77;97.63
21203;BME280;10759;51.982;9.232;2023-04-27T03:39:42;100806.56;;;3.78;97.49
21203;BME280;10759;51.982;9.232;2023-04-27T03:42:12;100805.72;;;3.66;98.15
21203;BME280;10759;51.982;9.232;2023-04-27T03:44:40;100789.84;;;3.62;98.11
21203;BME280;10759;51.982;9.232;2023-04-27T03:47:08;100765.16;;;3.46;98.12
21203;BME280;10759;51.982;9.232;2023-04-27T03:49:38;100781.81;;;3.79;97.49
21203;BME280;10759;51.982;9.232;2023-04-27T03:52:06;100805.66;;;3.88;97.05
21203;BME280;10759;51.982;9.232;2023-04-27T03:54:34;100795.03;;;3.91;96.46
21203;BME280;10759;51.982;9.232;2023-04-27T03:57:02;100773.06;;;3.58;96.80
21203;BME280;10759;51.982;9.232;2023-04-27T03:59:32;100810.13;;;3.71;97.03
21203;BME280;10759;51.982;9.232;2023-04-27T04:02:00;100811.06;;;3.60;97.39
21203;BME280;10759;51.982;9.232;2023-04-27T04:04:29;100800.47;;;3.53;97.60
21203;BME280;10759;51.982;9.232;2023-04-27T04:06:57;100794.28;;;3.46;97.68
21203;BME280;10759;51.982;9.232;2023-04-27T04:09:25;100804.03;;;3.46;97.59
21203;BME280;10759;51.982;9.232;2023-04-27T04:11:53;100814.63;;;3.39;96.69
21203;BME280;10759;51.982;9.232;2023-04-27T04:14:21;100813.75;;;3.27;96.69
21203;BME280;10759;51.982;9.232;2023-04-27T04:16:51;100798.75;;;3.19;97.32
21203;BME280;10759;51.982;9.232;2023-04-27T04:19:19;100815.53;;;3.21;97.77
21203;BME280;10759;51.982;9.232;2023-04-27T04:21:47;100806.72;;;3.22;97.53
21203;BME280;10759;51.982;9.232;2023-04-27T04:24:17;100810.22;;;3.25;97.32
21203;BME280;10759;51.982;9.232;2023-04-27T04:26:45;100655.84;;;2.29;96.47
21203;BME280;10759;51.982;9.232;2023-04-27T04:29:14;100821.72;;;3.11;96.35
21203;BME280;10759;51.982;9.232;2023-04-27T04:31:42;100821.72;;;3.02;96.76
21203;BME280;10759;51.982;9.232;2023-04-27T04:34:12;100795.25;;;2.91;96.94
21203;BME280;10759;51.982;9.232;2023-04-27T04:36:40;100815.53;;;3.14;96.52
21203;BME280;10759;51.982;9.232;2023-04-27T04:39:08;100827.00;;;3.14;96.23
21203;BME280;10759;51.982;9.232;2023-04-27T04:41:38;100772.31;;;2.89;95.81
21203;BME280;10759;51.982;9.232;2023-04-27T04:44:08;100841.97;;;3.49;95.12
21203;BME280;10759;51.982;9.232;2023-04-27T04:46:36;100834.00;;;3.77;94.53
21203;BME280;10759;51.982;9.232;2023-04-27T04:49:04;100813.63;;;3.80;93.14
21203;BME280;10759;51.982;9.232;2023-04-27T04:51:34;100840.88;;;4.24;92.36
21203;BME280;10759;51.982;9.232;2023-04-27T04:54:02;100849.59;;;4.50;91.17
21203;BME280;10759;51.982;9.232;2023-04-27T04:56:30;100816.06;;;4.36;90.08
21203;BME280;10759;51.982;9.232;2023-04-27T04:59:00;100851.22;;;4.70;89.70
21203;BME280;10759;51.982;9.232;2023-04-27T05:01:30;100848.59;;;4.67;89.34
21203;BME280;10759;51.982;9.232;2023-04-27T05:03:58;100812.41;;;4.54;88.40
21203;BME280;10759;51.982;9.232;2023-04-27T05:06:27;100861.84;;;4.73;89.28
21203;BME280;10759;51.982;9.232;2023-04-27T05:08:56;100857.53;;;4.54;91.38
21203;BME280;10759;51.982;9.232;2023-04-27T05:11:24;100862.84;;;4.54;91.59
21203;BME280;10759;51.982;9.232;2023-04-27T05:13:52;100857.56;;;4.44;91.94
21203;BME280;10759;51.982;9.232;2023-04-27T05:16:20;100859.41;;;4.36;93.63
21203;BME280;10759;51.982;9.232;2023-04-27T05:18:47;100856.03;;;3.93;95.73
21203;BME280;10759;51.982;9.232;2023-04-27T05:21:15;100815.44;;;3.61;96.81
21203;BME280;10759;51.982;9.232;2023-04-27T05:23:46;100838.31;;;3.96;96.71
21203;BME280;10759;51.982;9.232;2023-04-27T05:26:17;100880.50;;;4.58;93.50
21203;BME280;10759;51.982;9.232;2023-04-27T05:28:45;100875.94;;;4.87;92.73
21203;BME280;10759;51.982;9.232;2023-04-27T05:31:14;100791.94;;;4.71;91.07
21203;BME280;10759;51.982;9.232;2023-04-27T05:33:43;100876.69;;;5.02;91.05
21203;BME280;10759;51.982;9.232;2023-04-27T05:36:11;100762.16;;;4.23;91.91
21203;BME280;10759;51.982;9.232;2023-04-27T05:38:39;100822.13;;;4.55;92.74
21203;BME280;10759;51.982;9.232;2023-04-27T05:41:07;100876.75;;;4.95;93.28
21203;BME280;10759;51.982;9.232;2023-04-27T05:43:36;100880.97;;;5.24;91.85
21203;BME280;10759;51.982;9.232;2023-04-27T05:46:04;100874.56;;;5.45;90.94
21203;BME280;10759;51.982;9.232;2023-04-27T05:48:33;100877.81;;;5.76;89.13
21203;BME280;10759;51.982;9.232;2023-04-27T05:51:01;100883.38;;;5.49;88.94
21203;BME280;10759;51.982;9.232;2023-04-27T05:53:29;100879.81;;;5.54;89.53
21203;BME280;10759;51.982;9.232;2023-04-27T05:55:57;100879.03;;;5.42;92.83
21203;BME280;10759;51.982;9.232;2023-04-27T05:58:26;100856.06;;;5.33;91.75
21203;BME280;10759;51.982;9.232;2023-04-27T06:00:55;100890.75;;;5.16;93.48
21203;BME280;10759;51.982;9.232;2023-04-27T06:03:23;100894.22;;;5.27;93.84
21203;BME280;10759;51.982;9.232;2023-04-27T06:05:55;100885.47;;;5.13;93.49
21203;BME280;10759;51.982;9.232;2023-04-27T06:08:25;100899.50;;;5.30;93.05
21203;BME280;10759;51.982;9.232;2023-04-27T06:10:53;100894.88;;;5.51;92.97
21203;BME280;10759;51.982;9.232;2023-04-27T06:13:21;100885.63;;;5.93;90.38
21203;BME280;10759;51.982;9.232;2023-04-27T06:15:49;100849.69;;;5.52;90.30
21203;BME280;10759;51.982;9.232;2023-04-27T06:18:18;100899.56;;;6.18;89.62
21203;BME280;10759;51.982;9.232;2023-04-27T06:20:46;100893.09;;;6.39;89.69
21203;BME280;10759;51.982;9.232;2023-04-27T06:23:13;100905.47;;;6.45;88.17
21203;BME280;10759;51.982;9.232;2023-04-27T06:25:41;100872.53;;;6.51;89.23
21203;BME280;10759;51.982;9.232;2023-04-27T06:28:09;100859.34;;;6.43;87.58
21203;BME280;10759;51.982;9.232;2023-04-27T06:30:37;100899.81;;;6.66;90.17
21203;BME280;10759;51.982;9.232;2023-04-27T06:33:05;100902.88;;;7.02;87.12
21203;BME280;10759;51.982;9.232;2023-04-27T06:35:34;100903.38;;;7.26;85.41
21203;BME280;10759;51.982;9.232;2023-04-27T06:38:02;100889.25;;;7.22;86.41
21203;BME280;10759;51.982;9.232;2023-04-27T06:40:34;100902.56;;;7.24;84.54
21203;BME280;10759;51.982;9.232;2023-04-27T06:43:02;100904.16;;;7.34;84.51
21203;BME280;10759;51.982;9.232;2023-04-27T06:45:30;100905.16;;;7.27;84.47
21203;BME280;10759;51.982;9.232;2023-04-27T06:47:58;100912.34;;;7.22;80.98
21203;BME280;10759;51.982;9.232;2023-04-27T06:50:26;100893.03;;;7.62;83.48
21203;BME280;10759;51.982;9.232;2023-04-27T06:52:56;100864.97;;;7.38;81.36
21203;BME280;10759;51.982;9.232;2023-04-27T06:55:24;100892.00;;;7.70;79.93
21203;BME280;10759;51.982;9.232;2023-04-27T06:57:52;100889.03;;;7.86;77.59
21203;BME280;10759;51.982;9.232;2023-04-27T07:00:20;100886.75;;;8.12;75.97
21203;BME280;10759;51.982;9.232;2023-04-27T07:02:48;100884.22;;;7.57;73.98
21203;BME280;10759;51.982;9.232;2023-04-27T07:05:17;100805.00;;;7.60;76.71
21203;BME280;10759;51.982;9.232;2023-04-27T07:07:45;100877.41;;;8.33;70.49
21203;BME280;10759;51.982;9.232;2023-04-27T07:10:14;100899.84;;;8.68;66.93
21203;BME280;10759;51.982;9.232;2023-04-27T07:12:42;100902.06;;;8.48;61.03
21203;BME280;10759;51.982;9.232;2023-04-27T07:15:10;100902.31;;;8.77;62.17
21203;BME280;10759;51.982;9.232;2023-04-27T07:17:38;100884.28;;;8.89;60.49
21203;BME280;10759;51.982;9.232;2023-04-27T07:20:07;100905.94;;;8.76;58.30
21203;BME280;10759;51.982;9.232;2023-04-27T07:22:35;100905.91;;;9.15;60.26
21203;BME280;10759;51.982;9.232;2023-04-27T07:25:05;100896.41;;;9.03;55.46
21203;BME280;10759;51.982;9.232;2023-04-27T07:27:34;100908.53;;;9.18;53.92
21203;BME280;10759;51.982;9.232;2023-04-27T07:30:03;100873.44;;;8.93;54.34
21203;BME280;10759;51.982;9.232;2023-04-27T07:32:32;100879.44;;;9.05;53.07
21203;BME280;10759;51.982;9.232;2023-04-27T07:35:00;100908.91;;;9.01;51.96
21203;BME280;10759;51.982;9.232;2023-04-27T07:37:28;100897.75;;;8.82;52.15
21203;BME280;10759;51.982;9.232;2023-04-27T07:39:56;100825.38;;;8.53;52.22
21203;BME280;10759;51.982;9.232;2023-04-27T07:42:25;100905.56;;;9.31;53.50
21203;BME280;10759;51.982;9.232;2023-04-27T07:44:55;100909.00;;;9.36;49.97
21203;BME280;10759;51.982;9.232;2023-04-27T07:47:22;100877.72;;;9.02;49.40
21203;BME280;10759;51.982;9.232;2023-04-27T07:49:50;100863.41;;;8.22;49.33
21203;BME280;10759;51.982;9.232;2023-04-27T07:52:18;100897.53;;;8.51;50.96
21203;BME280;10759;51.982;9.232;2023-04-27T07:54:46;100898.13;;;9.05;50.33
21203;BME280;10759;51.982;9.232;2023-04-27T07:57:14;100862.03;;;8.87;49.83
21203;BME280;10759;51.982;9.232;2023-04-27T07:59:42;100902.88;;;9.31;51.16
21203;BME280;10759;51.982;9.232;2023-04-27T08:02:11;100897.53;;;9.31;50.07
21203;BME280;10759;51.982;9.232;2023-04-27T08:04:45;100843.94;;;9.34;50.61
21203;BME280;10759;51.982;9.232;2023-04-27T08:07:14;100803.03;;;8.96;50.35
21203;BME280;10759;51.982;9.232;2023-04-27T08:09:43;100891.72;;;9.83;50.59
21203;BME280;10759;51.982;9.232;2023-04-27T08:12:11;100882.91;;;10.11;48.49
21203;BME280;10759;51.982;9.232;2023-04-27T08:14:39;100891.84;;;10.44;45.73
21203;BME280;10759;51.982;9.232;2023-04-27T08:17:07;100880.41;;;10.05;47.71
21203;BME280;10759;51.982;9.232;2023-04-27T08:19:39;100816.38;;;9.97;46.63
21203;BME280;10759;51.982;9.232;2023-04-27T08:22:08;100870.22;;;10.18;48.18
21203;BME280;10759;51.982;9.232;2023-04-27T08:24:36;100873.63;;;9.92;46.67
21203;BME280;10759;51.982;9.232;2023-04-27T08:27:04;100877.81;;;10.35;47.70
21203;BME280;10759;51.982;9.232;2023-04-27T08:29:32;100829.69;;;9.99;47.10
21203;BME280;10759;51.982;9.232;2023-04-27T08:32:01;100866.13;;;9.72;46.24
21203;BME280;10759;51.982;9.232;2023-04-27T08:34:30;100875.47;;;10.22;46.58
21203;BME280;10759;51.982;9.232;2023-04-27T08:36:59;100878.19;;;10.21;45.92
21203;BME280;10759;51.982;9.232;2023-04-27T08:39:29;100852.47;;;10.15;46.29
21203;BME280;10759;51.982;9.232;2023-04-27T08:41:57;100873.44;;;10.32;44.60
21203;BME280;10759;51.982;9.232;2023-04-27T08:44:25;100867.06;;;10.36;42.74
21203;BME280;10759;51.982;9.232;2023-04-27T08:46:53;100875.00;;;10.69;45.64
21203;BME280;10759;51.982;9.232;2023-04-27T08:49:21;100884.13;;;10.63;42.07
21203;BME280;10759;51.982;9.232;2023-04-27T08:51:49;100879.91;;;10.84;41.84
21203;BME280;10759;51.982;9.232;2023-04-27T08:54:19;100875.13;;;10.66;41.62
21203;BME280;10759;51.982;9.232;2023-04-27T08:56:47;100842.63;;;10.47;40.25
21203;BME280;10759;51.982;9.232;2023-04-27T08:59:15;100860.41;;;10.79;40.87
21203;BME280;10759;51.982;9.232;2023-04-27T09:01:44;100870.03;;;10.57;41.12
21203;BME280;10759;51.982;9.232;2023-04-27T09:04:14;100874.75;;;10.48;41.06
21203;BME280;10759;51.982;9.232;2023-04-27T09:06:43;100868.53;;;10.76;41.65
21203;BME280;10759;51.982;9.232;2023-04-27T09:09:22;100868.81;;;10.95;42.38
21203;BME280;10759;51.982;9.232;2023-04-27T09:11:50;100868.88;;;11.22;41.99
21203;BME280;10759;51.982;9.232;2023-04-27T09:14:19;100869.03;;;11.70;43.96
21203;BME280;10759;51.982;9.232;2023-04-27T09:16:52;100859.78;;;11.79;41.04
21203;BME280;10759;51.982;9.232;2023-04-27T09:19:25;100857.25;;;11.74;40.27
21203;BME280;10759;51.982;9.232;2023-04-27T09:22:05;100863.34;;;11.79;39.62
21203;BME280;10759;51.982;9.232;2023-04-27T09:24:35;100838.75;;;11.92;38.63
21203;BME280;10759;51.982;9.232;2023-04-27T09:27:05;100864.34;;;11.50;39.85
21203;BME280;10759;51.982;9.232;2023-04-27T09:29:34;100845.28;;;11.58;39.45
21203;BME280;10759;51.982;9.232;2023-04-27T09:32:13;100866.75;;;11.58;39.26
21203;BME280;10759;51.982;9.232;2023-04-27T09:34:42;100859.22;;;12.19;39.73
21203;BME280;10759;51.982;9.232;2023-04-27T09:37:11;100860.97;;;11.70;39.78
21203;BME280;10759;51.982;9.232;2023-04-27T09:39:41;100822.34;;;11.74;38.86
21203;BME280;10759;51.982;9.232;2023-04-27T09:42:11;100856.59;;;12.65;42.98
21203;BME280;10759;51.982;9.232;2023-04-27T09:44:39;100845.25;;;12.80;37.58
21203;BME280;10759;51.982;9.232;2023-04-27T09:47:08;100850.00;;;12.74;37.38
21203;BME280;10759;51.982;9.232;2023-04-27T09:49:37;100848.09;;;11.28;37.28
21203;BME280;10759;51.982;9.232;2023-04-27T09:52:05;100837.53;;;11.22;38.29
21203;BME280;10759;51.982;9.232;2023-04-27T09:54:33;100819.88;;;11.68;41.31
21203;BME280;10759;51.982;9.232;2023-04-27T09:57:11;100827.00;;;12.43;39.81
21203;BME280;10759;51.982;9.232;2023-04-27T10:00:00;100843.19;;;12.41;35.38
21203;BME280;10759;51.982;9.232;2023-04-27T10:02:41;100833.66;;;12.09;36.88
21203;BME280;10759;51.982;9.232;2023-04-27T10:05:33;100848.13;;;12.76;42.55
21203;BME280;10759;51.982;9.232;2023-04-27T10:08:04;100819.38;;;12.78;38.00
21203;BME280;10759;51.982;9.232;2023-04-27T10:10:41;100849.69;;;13.03;36.98
21203;BME280;10759;51.982;9.232;2023-04-27T10:13:20;100840.13;;;13.18;39.43
21203;BME280;10759;51.982;9.232;2023-04-27T10:15:49;100852.97;;;13.34;40.21
21203;BME280;10759;51.982;9.232;2023-04-27T10:18:24;100824.03;;;13.17;34.87
21203;BME280;10759;51.982;9.232;2023-04-27T10:20:53;100848.88;;;13.01;36.99
21203;BME280;10759;51.982;9.232;2023-04-27T10:23:22;100834.09;;;12.20;37.87
21203;BME280;10759;51.982;9.232;2023-04-27T10:25:52;100832.25;;;12.22;38.88
21203;BME280;10759;51.982;9.232;2023-04-27T10:28:22;100834.59;;;12.32;36.64
21203;BME280;10759;51.982;9.232;2023-04-27T10:30:49;100825.44;;;12.59;37.44
21203;BME280;10759;51.982;9.232;2023-04-27T10:33:18;100812.28;;;12.30;38.35
21203;BME280;10759;51.982;9.232;2023-04-27T10:35:55;100819.56;;;12.95;39.16
21203;BME280;10759;51.982;9.232;2023-04-27T10:38:27;100824.75;;;12.78;37.72
21203;BME280;10759;51.982;9.232;2023-04-27T10:40:56;100824.47;;;13.06;38.71
21203;BME280;10759;51.982;9.232;2023-04-27T10:43:27;100816.44;;;13.26;42.32
21203;BME280;10759;51.982;9.232;2023-04-27T10:46:06;100825.13;;;12.91;39.13
21203;BME280;10759;51.982;9.232;2023-04-27T10:48:36;100818.41;;;13.23;38.72
21203;BME280;10759;51.982;9.232;2023-04-27T10:51:03;100798.72;;;12.78;35.64
21203;BME280;10759;51.982;9.232;2023-04-27T10:53:35;100813.84;;;12.81;37.80
21203;BME280;10759;51.982;9.232;2023-04-27T10:56:04;100774.84;;;12.47;37.17
21203;BME280;10759;51.982;9.232;2023-04-27T10:58:34;100815.72;;;13.01;36.42
21203;BME280;10759;51.982;9.232;2023-04-27T11:01:08;100809.47;;;13.00;39.94
21203;BME280;10759;51.982;9.232;2023-04-27T11:03:36;100780.25;;;12.47;35.19
21203;BME280;10759;51.982;9.232;2023-04-27T11:06:05;100792.97;;;12.42;38.25
21203;BME280;10759;51.982;9.232;2023-04-27T11:08:42;100802.84;;;12.87;38.92
21203;BME280;10759;51.982;9.232;2023-04-27T11:11:13;100804.34;;;12.94;35.58
21203;BME280;10759;51.982;9.232;2023-04-27T11:13:43;100811.97;;;13.05;36.47
21203;BME280;10759;51.982;9.232;2023-04-27T11:16:12;100810.84;;;13.10;37.23
21203;BME280;10759;51.982;9.232;2023-04-27T11:18:40;100809.59;;;13.19;36.24
21203;BME280;10759;51.982;9.232;2023-04-27T11:21:09;100792.56;;;12.53;35.62
21203;BME280;10759;51.982;9.232;2023-04-27T11:23:38;100803.38;;;12.28;37.24
21203;BME280;10759;51.982;9.232;2023-04-27T11:26:10;100796.94;;;12.77;37.58
21203;BME280;10759;51.982;9.232;2023-04-27T11:28:38;100798.84;;;12.30;35.23
21203;BME280;10759;51.982;9.232;2023-04-27T11:31:08;100794.53;;;12.48;38.24
21203;BME280;10759;51.982;9.232;2023-04-27T11:33:37;100772.53;;;12.38;38.59
21203;BME280;10759;51.982;9.232;2023-04-27T11:36:15;100795.47;;;12.92;38.45
21203;BME280;10759;51.982;9.232;2023-04-27T11:38:43;100797.03;;;12.76;39.38
21203;BME280;10759;51.982;9.232;2023-04-27T11:41:11;100790.53;;;13.24;38.98
21203;BME280;10759;51.982;9.232;2023-04-27T11:43:40;100788.97;;;13.61;39.37
21203;BME280;10759;51.982;9.232;2023-04-27T11:46:10;100778.03;;;13.45;38.51
21203;BME280;10759;51.982;9.232;2023-04-27T11:48:38;100781.19;;;13.55;36.72
21203;BME280;10759;51.982;9.232;2023-04-27T11:51:09;100778.34;;;13.58;38.48
21203;BME280;10759;51.982;9.232;2023-04-27T11:53:38;100772.28;;;13.73;39.98
21203;BME280;10759;51.982;9.232;2023-04-27T11:56:09;100780.81;;;13.83;35.17
21203;BME280;10759;51.982;9.232;2023-04-27T11:58:38;100772.44;;;13.49;36.11
21203;BME280;10759;51.982;9.232;2023-04-27T12:01:07;100725.28;;;12.98;34.98
21203;BME280;10759;51.982;9.232;2023-04-27T12:03:37;100768.31;;;13.41;36.79
21203;BME280;10759;51.982;9.232;2023-04-27T12:06:05;100747.13;;;13.11;38.26
21203;BME280;10759;51.982;9.232;2023-04-27T12:08:54;100747.41;;;13.27;38.69
21203;BME280;10759;51.982;9.232;2023-04-27T12:11:23;100761.38;;;13.56;39.41
21203;BME280;10759;51.982;9.232;2023-04-27T12:13:51;100762.06;;;13.61;36.49
21203;BME280;10759;51.982;9.232;2023-04-27T12:16:19;100717.06;;;13.44;38.75
21203;BME280;10759;51.982;9.232;2023-04-27T12:18:50;100699.53;;;13.34;37.23
21203;BME280;10759;51.982;9.232;2023-04-27T12:21:18;100755.03;;;13.77;38.73
21203;BME280;10759;51.982;9.232;2023-04-27T12:23:45;100756.25;;;13.70;37.05
21203;BME280;10759;51.982;9.232;2023-04-27T12:26:13;100751.44;;;13.58;36.27
21203;BME280;10759;51.982;9.232;2023-04-27T12:28:41;100752.31;;;13.16;38.14
21203;BME280;10759;51.982;9.232;2023-04-27T12:31:12;100757.50;;;13.42;36.43
21203;BME280;10759;51.982;9.232;2023-04-27T12:33:40;100511.59;;;11.79;35.32
21203;BME280;10759;51.982;9.232;2023-04-27T12:36:09;100743.72;;;13.29;37.24
21203;BME280;10759;51.982;9.232;2023-04-27T12:38:37;100707.38;;;12.09;36.27
21203;BME280;10759;51.982;9.232;2023-04-27T12:41:05;100747.44;;;11.92;37.28
21203;BME280;10759;51.982;9.232;2023-04-27T12:43:33;100749.94;;;12.65;37.65
21203;BME280;10759;51.982;9.232;2023-04-27T12:46:02;100709.84;;;13.02;39.21
21203;BME280;10759;51.982;9.232;2023-04-27T12:48:30;100744.72;;;13.47;36.02
21203;BME280;10759;51.982;9.232;2023-04-27T12:50:59;100744.28;;;13.77;41.05
21203;BME280;10759;51.982;9.232;2023-04-27T12:53:28;100747.56;;;13.63;35.92
21203;BME280;10759;51.982;9.232;2023-04-27T12:55:56;100751.94;;;12.82;36.72
21203;BME280;10759;51.982;9.232;2023-04-27T12:58:26;100747.13;;;13.33;36.75
21203;BME280;10759;51.982;9.232;2023-04-27T13:00:55;100750.13;;;13.25;36.91
21203;BME280;10759;51.982;9.232;2023-04-27T13:03:24;100746.88;;;13.39;36.35
21203;BME280;10759;51.982;9.232;2023-04-27T13:05:52;100747.53;;;13.65;39.79
21203;BME280;10759;51.982;9.232;2023-04-27T13:08:20;100749.31;;;13.85;39.71